Terminal Aerodrome Forecast
Issued by NWS Quad Cities IA IL

Home | Current Version | Previous Version | Text Only | Print | Product List | Glossary On
Versions: 1 2 3 4 5 6 7 8 9 10 11 12 13 14 15 16 17 18 19 20 21 22
000
FTUS43 KDVN 250300 AAA
TAFMLI
TAF AMD
KMLI 250316Z 2503/2524 28002KT 4SM BR SCT005 BKN025
     FM250500 23004KT 2SM BR OVC015
      TEMPO 2505/2509 1/2SM FG VV003
     FM250900 26004KT 1/2SM FG VV003
     FM251400 29006KT 6SM BR SCT200=

USA.gov is the U.S. government's official web portal to all federal, state and local government web resources and services.